sensor_id;sensor_type;location;lat;lon;timestamp;P1;durP1;ratioP1;P2;durP2;ratioP2
1294;SDS011;640;48.310;11.728;2023-02-15T00:02:06;88.72;;;13.05;;
1294;SDS011;640;48.310;11.728;2023-02-15T00:04:34;59.78;;;11.98;;
1294;SDS011;640;48.310;11.728;2023-02-15T00:07:17;71.05;;;13.68;;
1294;SDS011;640;48.310;11.728;2023-02-15T00:09:47;67.97;;;12.57;;
1294;SDS011;640;48.310;11.728;2023-02-15T00:12:15;58.85;;;11.90;;
1294;SDS011;640;48.310;11.728;2023-02-15T00:14:44;65.18;;;12.88;;
1294;SDS011;640;48.310;11.728;2023-02-15T00:17:12;76.75;;;12.02;;
1294;SDS011;640;48.310;11.728;2023-02-15T00:19:40;84.93;;;12.80;;
1294;SDS011;640;48.310;11.728;2023-02-15T00:22:09;44.17;;;11.77;;
1294;SDS011;640;48.310;11.728;2023-02-15T00:24:38;126.57;;;15.82;;
1294;SDS011;640;48.310;11.728;2023-02-15T00:27:06;39.72;;;11.55;;
1294;SDS011;640;48.310;11.728;2023-02-15T00:29:35;80.95;;;13.63;;
1294;SDS011;640;48.310;11.728;2023-02-15T00:32:04;121.50;;;16.20;;
1294;SDS011;640;48.310;11.728;2023-02-15T00:34:32;102.03;;;17.48;;
1294;SDS011;640;48.310;11.728;2023-02-15T00:37:01;91.15;;;12.45;;
1294;SDS011;640;48.310;11.728;2023-02-15T00:39:29;50.30;;;11.25;;
1294;SDS011;640;48.310;11.728;2023-02-15T00:41:58;79.72;;;14.25;;
1294;SDS011;640;48.310;11.728;2023-02-15T00:44:27;73.63;;;13.67;;
1294;SDS011;640;48.310;11.728;2023-02-15T00:46:55;76.38;;;15.13;;
1294;SDS011;640;48.310;11.728;2023-02-15T00:49:23;35.65;;;12.05;;
1294;SDS011;640;48.310;11.728;2023-02-15T00:51:52;102.95;;;15.30;;
1294;SDS011;640;48.310;11.728;2023-02-15T00:54:20;58.55;;;13.70;;
1294;SDS011;640;48.310;11.728;2023-02-15T00:56:48;52.10;;;13.30;;
1294;SDS011;640;48.310;11.728;2023-02-15T00:59:18;69.70;;;15.75;;
1294;SDS011;640;48.310;11.728;2023-02-15T01:01:46;74.63;;;15.77;;
1294;SDS011;640;48.310;11.728;2023-02-15T01:04:14;46.95;;;12.60;;
1294;SDS011;640;48.310;11.728;2023-02-15T01:06:43;51.90;;;12.73;;
1294;SDS011;640;48.310;11.728;2023-02-15T01:09:11;82.38;;;13.90;;
1294;SDS011;640;48.310;11.728;2023-02-15T01:11:40;82.63;;;16.95;;
1294;SDS011;640;48.310;11.728;2023-02-15T01:14:08;64.93;;;14.13;;
1294;SDS011;640;48.310;11.728;2023-02-15T01:16:38;62.63;;;13.27;;
1294;SDS011;640;48.310;11.728;2023-02-15T01:19:06;65.90;;;13.50;;
1294;SDS011;640;48.310;11.728;2023-02-15T01:21:35;51.58;;;12.88;;
1294;SDS011;640;48.310;11.728;2023-02-15T01:24:03;67.57;;;14.65;;
1294;SDS011;640;48.310;11.728;2023-02-15T01:26:31;38.03;;;12.05;;
1294;SDS011;640;48.310;11.728;2023-02-15T01:29:00;137.98;;;19.00;;
1294;SDS011;640;48.310;11.728;2023-02-15T01:31:28;50.35;;;12.80;;
1294;SDS011;640;48.310;11.728;2023-02-15T01:33:58;70.07;;;14.48;;
1294;SDS011;640;48.310;11.728;2023-02-15T01:36:26;51.60;;;13.23;;
1294;SDS011;640;48.310;11.728;2023-02-15T01:38:55;67.38;;;13.50;;
1294;SDS011;640;48.310;11.728;2023-02-15T01:41:23;58.80;;;13.02;;
1294;SDS011;640;48.310;11.728;2023-02-15T01:43:53;57.17;;;14.27;;
1294;SDS011;640;48.310;11.728;2023-02-15T01:46:24;70.43;;;15.57;;
1294;SDS011;640;48.310;11.728;2023-02-15T01:48:58;65.05;;;14.25;;
1294;SDS011;640;48.310;11.728;2023-02-15T01:51:31;124.97;;;18.55;;
1294;SDS011;640;48.310;11.728;2023-02-15T01:54:04;61.72;;;13.95;;
1294;SDS011;640;48.310;11.728;2023-02-15T01:56:35;74.57;;;16.67;;
1294;SDS011;640;48.310;11.728;2023-02-15T01:59:06;45.47;;;13.23;;
1294;SDS011;640;48.310;11.728;2023-02-15T02:01:36;43.70;;;14.25;;
1294;SDS011;640;48.310;11.728;2023-02-15T02:04:08;42.58;;;13.63;;
1294;SDS011;640;48.310;11.728;2023-02-15T02:06:39;71.28;;;15.15;;
1294;SDS011;640;48.310;11.728;2023-02-15T02:09:08;83.22;;;15.63;;
1294;SDS011;640;48.310;11.728;2023-02-15T02:11:37;30.88;;;11.32;;
1294;SDS011;640;48.310;11.728;2023-02-15T02:14:07;39.80;;;13.55;;
1294;SDS011;640;48.310;11.728;2023-02-15T02:16:37;56.38;;;14.50;;
1294;SDS011;640;48.310;11.728;2023-02-15T02:19:16;39.00;;;13.10;;
1294;SDS011;640;48.310;11.728;2023-02-15T02:22:06;39.15;;;12.82;;
1294;SDS011;640;48.310;11.728;2023-02-15T02:25:01;46.00;;;14.80;;
1294;SDS011;640;48.310;11.728;2023-02-15T02:27:40;37.92;;;13.18;;
1294;SDS011;640;48.310;11.728;2023-02-15T02:30:17;40.35;;;13.55;;
1294;SDS011;640;48.310;11.728;2023-02-15T02:33:27;40.70;;;14.65;;
1294;SDS011;640;48.310;11.728;2023-02-15T02:36:17;36.08;;;11.95;;
1294;SDS011;640;48.310;11.728;2023-02-15T02:38:55;46.38;;;14.32;;
1294;SDS011;640;48.310;11.728;2023-02-15T02:41:32;46.90;;;12.27;;
1294;SDS011;640;48.310;11.728;2023-02-15T02:44:08;54.65;;;13.63;;
1294;SDS011;640;48.310;11.728;2023-02-15T02:46:44;38.70;;;13.68;;
1294;SDS011;640;48.310;11.728;2023-02-15T02:49:16;69.57;;;14.50;;
1294;SDS011;640;48.310;11.728;2023-02-15T02:51:44;36.15;;;11.13;;
1294;SDS011;640;48.310;11.728;2023-02-15T02:54:12;48.85;;;11.40;;
1294;SDS011;640;48.310;11.728;2023-02-15T02:56:41;39.25;;;8.75;;
1294;SDS011;640;48.310;11.728;2023-02-15T02:59:12;58.03;;;13.23;;
1294;SDS011;640;48.310;11.728;2023-02-15T03:01:44;24.90;;;10.82;;
1294;SDS011;640;48.310;11.728;2023-02-15T03:04:17;41.50;;;11.10;;
1294;SDS011;640;48.310;11.728;2023-02-15T03:06:48;36.13;;;11.35;;
1294;SDS011;640;48.310;11.728;2023-02-15T03:09:18;31.77;;;10.13;;
1294;SDS011;640;48.310;11.728;2023-02-15T03:11:51;40.75;;;10.35;;
1294;SDS011;640;48.310;11.728;2023-02-15T03:14:20;58.22;;;12.10;;
1294;SDS011;640;48.310;11.728;2023-02-15T03:16:48;57.15;;;11.57;;
1294;SDS011;640;48.310;11.728;2023-02-15T03:19:20;43.95;;;11.82;;
1294;SDS011;640;48.310;11.728;2023-02-15T03:21:53;43.92;;;11.75;;
1294;SDS011;640;48.310;11.728;2023-02-15T03:24:32;72.55;;;13.40;;
1294;SDS011;640;48.310;11.728;2023-02-15T03:27:04;59.20;;;12.18;;
1294;SDS011;640;48.310;11.728;2023-02-15T03:29:35;43.28;;;11.38;;
1294;SDS011;640;48.310;11.728;2023-02-15T03:32:04;27.58;;;12.02;;
1294;SDS011;640;48.310;11.728;2023-02-15T03:34:36;43.60;;;13.00;;
1294;SDS011;640;48.310;11.728;2023-02-15T03:37:05;52.05;;;13.85;;
1294;SDS011;640;48.310;11.728;2023-02-15T03:39:40;43.15;;;12.70;;
1294;SDS011;640;48.310;11.728;2023-02-15T03:42:12;49.85;;;11.60;;
1294;SDS011;640;48.310;11.728;2023-02-15T03:44:46;36.95;;;12.27;;
1294;SDS011;640;48.310;11.728;2023-02-15T03:47:18;30.20;;;11.90;;
1294;SDS011;640;48.310;11.728;2023-02-15T03:49:50;35.85;;;11.43;;
1294;SDS011;640;48.310;11.728;2023-02-15T03:52:21;49.33;;;11.95;;
1294;SDS011;640;48.310;11.728;2023-02-15T03:54:51;44.28;;;11.63;;
1294;SDS011;640;48.310;11.728;2023-02-15T03:57:20;34.72;;;11.68;;
1294;SDS011;640;48.310;11.728;2023-02-15T04:00:11;28.10;;;10.75;;
1294;SDS011;640;48.310;11.728;2023-02-15T04:03:09;42.97;;;11.98;;
1294;SDS011;640;48.310;11.728;2023-02-15T04:05:48;35.83;;;10.93;;
1294;SDS011;640;48.310;11.728;2023-02-15T04:08:16;58.33;;;11.95;;
1294;SDS011;640;48.310;11.728;2023-02-15T04:10:45;49.97;;;12.45;;
1294;SDS011;640;48.310;11.728;2023-02-15T04:13:23;50.78;;;11.43;;
1294;SDS011;640;48.310;11.728;2023-02-15T04:15:57;36.15;;;9.23;;
1294;SDS011;640;48.310;11.728;2023-02-15T04:18:32;28.48;;;10.90;;
1294;SDS011;640;48.310;11.728;2023-02-15T04:21:20;40.83;;;13.38;;
1294;SDS011;640;48.310;11.728;2023-02-15T04:24:07;36.35;;;12.02;;
1294;SDS011;640;48.310;11.728;2023-02-15T04:26:53;46.10;;;11.25;;
1294;SDS011;640;48.310;11.728;2023-02-15T04:29:22;36.42;;;10.70;;
1294;SDS011;640;48.310;11.728;2023-02-15T04:31:52;33.97;;;11.60;;
1294;SDS011;640;48.310;11.728;2023-02-15T04:34:21;37.22;;;11.52;;
1294;SDS011;640;48.310;11.728;2023-02-15T04:36:51;33.30;;;11.52;;
1294;SDS011;640;48.310;11.728;2023-02-15T04:39:19;37.65;;;12.65;;
1294;SDS011;640;48.310;11.728;2023-02-15T04:41:47;33.08;;;10.82;;
1294;SDS011;640;48.310;11.728;2023-02-15T04:44:16;41.83;;;11.43;;
1294;SDS011;640;48.310;11.728;2023-02-15T04:46:44;24.65;;;11.85;;
1294;SDS011;640;48.310;11.728;2023-02-15T04:49:12;39.20;;;12.30;;
1294;SDS011;640;48.310;11.728;2023-02-15T04:51:40;43.10;;;13.15;;
1294;SDS011;640;48.310;11.728;2023-02-15T04:54:10;37.38;;;13.77;;
1294;SDS011;640;48.310;11.728;2023-02-15T04:56:38;42.42;;;14.35;;
1294;SDS011;640;48.310;11.728;2023-02-15T04:59:08;55.85;;;13.75;;
1294;SDS011;640;48.310;11.728;2023-02-15T05:01:37;44.83;;;13.63;;
1294;SDS011;640;48.310;11.728;2023-02-15T05:04:05;51.53;;;13.93;;
1294;SDS011;640;48.310;11.728;2023-02-15T05:06:34;67.53;;;14.50;;
1294;SDS011;640;48.310;11.728;2023-02-15T05:09:02;69.28;;;13.98;;
1294;SDS011;640;48.310;11.728;2023-02-15T05:11:32;72.45;;;13.43;;
1294;SDS011;640;48.310;11.728;2023-02-15T05:14:01;91.18;;;14.98;;
1294;SDS011;640;48.310;11.728;2023-02-15T05:16:29;44.03;;;13.40;;
1294;SDS011;640;48.310;11.728;2023-02-15T05:18:57;77.63;;;14.18;;
1294;SDS011;640;48.310;11.728;2023-02-15T05:21:26;59.58;;;13.32;;
1294;SDS011;640;48.310;11.728;2023-02-15T05:23:54;41.35;;;12.48;;
1294;SDS011;640;48.310;11.728;2023-02-15T05:26:23;58.70;;;13.43;;
1294;SDS011;640;48.310;11.728;2023-02-15T05:29:10;61.03;;;13.85;;
1294;SDS011;640;48.310;11.728;2023-02-15T05:31:39;44.30;;;13.50;;
1294;SDS011;640;48.310;11.728;2023-02-15T05:34:07;56.67;;;13.43;;
1294;SDS011;640;48.310;11.728;2023-02-15T05:36:36;64.65;;;14.55;;
1294;SDS011;640;48.310;11.728;2023-02-15T05:39:04;42.72;;;13.70;;
1294;SDS011;640;48.310;11.728;2023-02-15T05:41:33;54.75;;;13.05;;
1294;SDS011;640;48.310;11.728;2023-02-15T05:44:02;57.67;;;13.23;;
1294;SDS011;640;48.310;11.728;2023-02-15T05:46:31;39.42;;;11.13;;
1294;SDS011;640;48.310;11.728;2023-02-15T05:48:59;51.37;;;13.30;;
1294;SDS011;640;48.310;11.728;2023-02-15T05:51:28;30.60;;;12.60;;
1294;SDS011;640;48.310;11.728;2023-02-15T05:53:56;51.20;;;12.25;;
1294;SDS011;640;48.310;11.728;2023-02-15T05:56:24;46.08;;;12.43;;
1294;SDS011;640;48.310;11.728;2023-02-15T05:58:52;50.58;;;12.15;;
1294;SDS011;640;48.310;11.728;2023-02-15T06:01:21;44.25;;;13.13;;
1294;SDS011;640;48.310;11.728;2023-02-15T06:03:51;44.65;;;12.20;;
1294;SDS011;640;48.310;11.728;2023-02-15T06:06:20;43.08;;;11.68;;
1294;SDS011;640;48.310;11.728;2023-02-15T06:08:49;52.50;;;12.15;;
1294;SDS011;640;48.310;11.728;2023-02-15T06:11:17;43.40;;;12.77;;
1294;SDS011;640;48.310;11.728;2023-02-15T06:13:45;65.10;;;12.75;;
1294;SDS011;640;48.310;11.728;2023-02-15T06:16:14;62.58;;;15.65;;
1294;SDS011;640;48.310;11.728;2023-02-15T06:18:43;61.42;;;13.35;;
1294;SDS011;640;48.310;11.728;2023-02-15T06:21:12;60.10;;;14.00;;
1294;SDS011;640;48.310;11.728;2023-02-15T06:23:41;55.58;;;14.10;;
1294;SDS011;640;48.310;11.728;2023-02-15T06:26:09;63.70;;;14.45;;
1294;SDS011;640;48.310;11.728;2023-02-15T06:28:38;62.10;;;16.08;;
1294;SDS011;640;48.310;11.728;2023-02-15T06:31:07;34.27;;;13.97;;
1294;SDS011;640;48.310;11.728;2023-02-15T06:33:36;66.35;;;15.50;;
1294;SDS011;640;48.310;11.728;2023-02-15T06:36:05;40.30;;;15.32;;
1294;SDS011;640;48.310;11.728;2023-02-15T06:38:35;40.63;;;14.43;;
1294;SDS011;640;48.310;11.728;2023-02-15T06:41:03;58.67;;;16.83;;
1294;SDS011;640;48.310;11.728;2023-02-15T06:43:32;49.38;;;14.05;;
1294;SDS011;640;48.310;11.728;2023-02-15T06:46:00;40.92;;;13.45;;
1294;SDS011;640;48.310;11.728;2023-02-15T06:48:29;49.92;;;13.50;;
1294;SDS011;640;48.310;11.728;2023-02-15T06:50:57;48.70;;;14.50;;
1294;SDS011;640;48.310;11.728;2023-02-15T06:53:26;54.63;;;14.20;;
1294;SDS011;640;48.310;11.728;2023-02-15T06:56:00;67.40;;;16.00;;
1294;SDS011;640;48.310;11.728;2023-02-15T06:58:33;39.08;;;13.50;;
1294;SDS011;640;48.310;11.728;2023-02-15T07:01:01;51.40;;;13.68;;
1294;SDS011;640;48.310;11.728;2023-02-15T07:03:29;40.75;;;14.13;;
1294;SDS011;640;48.310;11.728;2023-02-15T07:05:58;42.80;;;14.10;;
1294;SDS011;640;48.310;11.728;2023-02-15T07:08:29;53.35;;;14.57;;
1294;SDS011;640;48.310;11.728;2023-02-15T07:10:57;56.97;;;13.35;;
1294;SDS011;640;48.310;11.728;2023-02-15T07:13:47;47.63;;;14.75;;
1294;SDS011;640;48.310;11.728;2023-02-15T07:16:14;39.60;;;12.60;;
1294;SDS011;640;48.310;11.728;2023-02-15T07:18:43;42.65;;;12.13;;
1294;SDS011;640;48.310;11.728;2023-02-15T07:21:11;47.63;;;13.15;;
1294;SDS011;640;48.310;11.728;2023-02-15T07:23:39;37.25;;;12.32;;
1294;SDS011;640;48.310;11.728;2023-02-15T07:26:08;45.92;;;12.75;;
1294;SDS011;640;48.310;11.728;2023-02-15T07:28:36;36.80;;;15.25;;
1294;SDS011;640;48.310;11.728;2023-02-15T07:31:06;59.55;;;15.55;;
1294;SDS011;640;48.310;11.728;2023-02-15T07:33:34;58.70;;;14.97;;
1294;SDS011;640;48.310;11.728;2023-02-15T07:36:03;58.78;;;14.85;;
1294;SDS011;640;48.310;11.728;2023-02-15T07:38:32;44.10;;;14.68;;
1294;SDS011;640;48.310;11.728;2023-02-15T07:41:03;51.65;;;14.25;;
1294;SDS011;640;48.310;11.728;2023-02-15T07:43:32;28.98;;;12.38;;
1294;SDS011;640;48.310;11.728;2023-02-15T07:46:02;45.90;;;11.65;;
1294;SDS011;640;48.310;11.728;2023-02-15T07:48:32;43.85;;;14.68;;
1294;SDS011;640;48.310;11.728;2023-02-15T07:51:01;48.40;;;13.35;;
1294;SDS011;640;48.310;11.728;2023-02-15T07:53:31;33.72;;;12.30;;
1294;SDS011;640;48.310;11.728;2023-02-15T07:56:00;32.95;;;11.85;;
1294;SDS011;640;48.310;11.728;2023-02-15T07:58:28;27.17;;;11.70;;
1294;SDS011;640;48.310;11.728;2023-02-15T08:01:11;31.77;;;12.98;;
1294;SDS011;640;48.310;11.728;2023-02-15T08:03:41;27.38;;;11.15;;
1294;SDS011;640;48.310;11.728;2023-02-15T08:06:09;37.22;;;14.30;;
1294;SDS011;640;48.310;11.728;2023-02-15T08:08:38;57.53;;;13.00;;
1294;SDS011;640;48.310;11.728;2023-02-15T08:11:13;56.83;;;12.15;;
1294;SDS011;640;48.310;11.728;2023-02-15T08:13:57;39.15;;;11.50;;
1294;SDS011;640;48.310;11.728;2023-02-15T08:16:28;32.03;;;11.07;;
1294;SDS011;640;48.310;11.728;2023-02-15T08:19:00;29.00;;;10.70;;
1294;SDS011;640;48.310;11.728;2023-02-15T08:21:29;27.45;;;12.80;;
1294;SDS011;640;48.310;11.728;2023-02-15T08:23:59;23.63;;;12.13;;
1294;SDS011;640;48.310;11.728;2023-02-15T08:26:28;35.55;;;13.15;;
1294;SDS011;640;48.310;11.728;2023-02-15T08:28:57;41.90;;;13.02;;
1294;SDS011;640;48.310;11.728;2023-02-15T08:31:26;26.70;;;12.05;;
1294;SDS011;640;48.310;11.728;2023-02-15T08:33:55;30.67;;;13.00;;
1294;SDS011;640;48.310;11.728;2023-02-15T08:36:26;27.17;;;12.05;;
1294;SDS011;640;48.310;11.728;2023-02-15T08:38:57;47.70;;;15.25;;
1294;SDS011;640;48.310;11.728;2023-02-15T08:43:54;48.53;;;12.88;;
1294;SDS011;640;48.310;11.728;2023-02-15T08:46:24;21.42;;;11.50;;
1294;SDS011;640;48.310;11.728;2023-02-15T08:48:53;41.05;;;11.65;;
1294;SDS011;640;48.310;11.728;2023-02-15T08:51:23;39.47;;;9.85;;
1294;SDS011;640;48.310;11.728;2023-02-15T08:53:54;35.72;;;11.70;;
1294;SDS011;640;48.310;11.728;2023-02-15T08:56:24;40.65;;;12.30;;
1294;SDS011;640;48.310;11.728;2023-02-15T08:58:54;33.05;;;11.82;;
1294;SDS011;640;48.310;11.728;2023-02-15T09:01:23;40.38;;;12.30;;
1294;SDS011;640;48.310;11.728;2023-02-15T09:03:54;27.10;;;9.98;;
1294;SDS011;640;48.310;11.728;2023-02-15T09:06:25;34.45;;;9.90;;
1294;SDS011;640;48.310;11.728;2023-02-15T09:08:55;39.80;;;10.68;;
1294;SDS011;640;48.310;11.728;2023-02-15T09:11:25;22.77;;;10.70;;
1294;SDS011;640;48.310;11.728;2023-02-15T09:13:54;18.80;;;9.88;;
1294;SDS011;640;48.310;11.728;2023-02-15T09:16:24;31.83;;;11.60;;
1294;SDS011;640;48.310;11.728;2023-02-15T09:18:53;31.70;;;10.97;;
1294;SDS011;640;48.310;11.728;2023-02-15T09:21:24;20.58;;;10.18;;
1294;SDS011;640;48.310;11.728;2023-02-15T09:23:57;26.27;;;10.40;;
1294;SDS011;640;48.310;11.728;2023-02-15T09:26:27;20.70;;;10.25;;
1294;SDS011;640;48.310;11.728;2023-02-15T09:28:57;39.75;;;12.43;;
1294;SDS011;640;48.310;11.728;2023-02-15T09:31:28;23.05;;;11.00;;
1294;SDS011;640;48.310;11.728;2023-02-15T09:33:58;33.28;;;11.43;;
1294;SDS011;640;48.310;11.728;2023-02-15T09:36:29;30.85;;;13.00;;
1294;SDS011;640;48.310;11.728;2023-02-15T09:39:00;24.65;;;11.23;;
1294;SDS011;640;48.310;11.728;2023-02-15T09:41:52;30.48;;;11.82;;
1294;SDS011;640;48.310;11.728;2023-02-15T09:44:43;55.20;;;12.55;;
1294;SDS011;640;48.310;11.728;2023-02-15T09:47:27;21.17;;;11.23;;
1294;SDS011;640;48.310;11.728;2023-02-15T09:50:12;16.58;;;9.75;;
1294;SDS011;640;48.310;11.728;2023-02-15T09:52:48;36.15;;;10.40;;
1294;SDS011;640;48.310;11.728;2023-02-15T10:00:47;29.60;;;11.20;;
1294;SDS011;640;48.310;11.728;2023-02-15T10:03:22;14.60;;;10.10;;
1294;SDS011;640;48.310;11.728;2023-02-15T10:06:06;21.77;;;12.27;;
1294;SDS011;640;48.310;11.728;2023-02-15T10:08:48;25.08;;;11.27;;
1294;SDS011;640;48.310;11.728;2023-02-15T10:11:24;28.95;;;12.13;;
1294;SDS011;640;48.310;11.728;2023-02-15T10:17:08;31.58;;;12.82;;
1294;SDS011;640;48.310;11.728;2023-02-15T10:19:43;21.00;;;12.65;;
1294;SDS011;640;48.310;11.728;2023-02-15T10:22:20;33.00;;;14.25;;
1294;SDS011;640;48.310;11.728;2023-02-15T10:24:56;23.90;;;14.70;;
1294;SDS011;640;48.310;11.728;2023-02-15T10:27:41;24.30;;;13.27;;
1294;SDS011;640;48.310;11.728;2023-02-15T10:30:14;26.65;;;14.85;;
1294;SDS011;640;48.310;11.728;2023-02-15T10:32:51;22.47;;;14.93;;
1294;SDS011;640;48.310;11.728;2023-02-15T10:35:26;22.48;;;13.98;;
1294;SDS011;640;48.310;11.728;2023-02-15T10:38:15;18.85;;;13.50;;
1294;SDS011;640;48.310;11.728;2023-02-15T10:40:51;21.88;;;13.48;;
1294;SDS011;640;48.310;11.728;2023-02-15T10:43:32;20.60;;;12.77;;
1294;SDS011;640;48.310;11.728;2023-02-15T10:46:11;19.45;;;12.80;;
1294;SDS011;640;48.310;11.728;2023-02-15T10:48:58;26.05;;;12.80;;
1294;SDS011;640;48.310;11.728;2023-02-15T10:51:40;22.00;;;11.68;;
1294;SDS011;640;48.310;11.728;2023-02-15T10:54:19;26.80;;;13.18;;
1294;SDS011;640;48.310;11.728;2023-02-15T10:56:54;21.55;;;12.43;;
1294;SDS011;640;48.310;11.728;2023-02-15T10:59:34;20.55;;;12.25;;
1294;SDS011;640;48.310;11.728;2023-02-15T11:02:10;19.67;;;10.77;;
1294;SDS011;640;48.310;11.728;2023-02-15T11:04:53;19.02;;;12.07;;
1294;SDS011;640;48.310;11.728;2023-02-15T11:07:25;25.25;;;12.43;;
1294;SDS011;640;48.310;11.728;2023-02-15T11:09:56;23.70;;;12.25;;
1294;SDS011;640;48.310;11.728;2023-02-15T11:12:29;18.05;;;11.82;;
1294;SDS011;640;48.310;11.728;2023-02-15T11:15:01;25.23;;;12.97;;
1294;SDS011;640;48.310;11.728;2023-02-15T11:17:33;31.08;;;12.23;;
1294;SDS011;640;48.310;11.728;2023-02-15T11:20:06;19.95;;;13.13;;
1294;SDS011;640;48.310;11.728;2023-02-15T11:22:40;32.88;;;13.07;;
1294;SDS011;640;48.310;11.728;2023-02-15T11:25:14;25.65;;;12.57;;
1294;SDS011;640;48.310;11.728;2023-02-15T11:27:45;24.77;;;13.35;;
1294;SDS011;640;48.310;11.728;2023-02-15T11:30:19;21.30;;;12.35;;
1294;SDS011;640;48.310;11.728;2023-02-15T11:32:50;20.00;;;12.63;;
1294;SDS011;640;48.310;11.728;2023-02-15T11:35:23;24.45;;;14.13;;
1294;SDS011;640;48.310;11.728;2023-02-15T11:37:54;18.83;;;12.48;;
1294;SDS011;640;48.310;11.728;2023-02-15T11:40:27;22.40;;;13.43;;
1294;SDS011;640;48.310;11.728;2023-02-15T11:42:56;26.52;;;14.13;;
1294;SDS011;640;48.310;11.728;2023-02-15T11:45:29;29.35;;;16.75;;
1294;SDS011;640;48.310;11.728;2023-02-15T11:47:59;31.88;;;14.30;;
1294;SDS011;640;48.310;11.728;2023-02-15T11:50:28;34.05;;;14.50;;
1294;SDS011;640;48.310;11.728;2023-02-15T11:52:59;23.45;;;14.88;;
1294;SDS011;640;48.310;11.728;2023-02-15T11:55:29;25.17;;;17.83;;
1294;SDS011;640;48.310;11.728;2023-02-15T11:57:59;23.95;;;14.68;;
1294;SDS011;640;48.310;11.728;2023-02-15T12:00:33;22.88;;;14.75;;
1294;SDS011;640;48.310;11.728;2023-02-15T12:03:05;20.48;;;14.63;;
1294;SDS011;640;48.310;11.728;2023-02-15T12:05:37;24.75;;;16.10;;
1294;SDS011;640;48.310;11.728;2023-02-15T12:10:40;22.67;;;14.63;;
1294;SDS011;640;48.310;11.728;2023-02-15T12:13:15;22.52;;;14.88;;
1294;SDS011;640;48.310;11.728;2023-02-15T12:15:46;24.75;;;14.65;;
1294;SDS011;640;48.310;11.728;2023-02-15T12:18:19;22.90;;;14.95;;
1294;SDS011;640;48.310;11.728;2023-02-15T12:20:52;25.15;;;14.90;;
1294;SDS011;640;48.310;11.728;2023-02-15T12:23:20;23.83;;;14.68;;
1294;SDS011;640;48.310;11.728;2023-02-15T12:25:49;24.35;;;14.48;;
1294;SDS011;640;48.310;11.728;2023-02-15T12:28:22;21.75;;;13.75;;
1294;SDS011;640;48.310;11.728;2023-02-15T12:30:54;21.83;;;14.60;;
1294;SDS011;640;48.310;11.728;2023-02-15T12:33:26;22.75;;;13.85;;
1294;SDS011;640;48.310;11.728;2023-02-15T12:35:57;24.60;;;14.85;;
1294;SDS011;640;48.310;11.728;2023-02-15T12:38:29;24.90;;;14.85;;
1294;SDS011;640;48.310;11.728;2023-02-15T12:40:58;26.73;;;14.63;;
1294;SDS011;640;48.310;11.728;2023-02-15T12:43:30;21.23;;;13.70;;
1294;SDS011;640;48.310;11.728;2023-02-15T12:46:14;25.55;;;14.48;;
1294;SDS011;640;48.310;11.728;2023-02-15T12:48:56;25.38;;;14.48;;
1294;SDS011;640;48.310;11.728;2023-02-15T12:51:44;25.25;;;15.00;;
1294;SDS011;640;48.310;11.728;2023-02-15T12:54:17;24.70;;;14.07;;
1294;SDS011;640;48.310;11.728;2023-02-15T12:59:58;26.60;;;15.40;;
1294;SDS011;640;48.310;11.728;2023-02-15T13:02:30;28.05;;;17.02;;
1294;SDS011;640;48.310;11.728;2023-02-15T13:05:05;24.35;;;14.30;;
1294;SDS011;640;48.310;11.728;2023-02-15T13:07:45;23.00;;;14.18;;
1294;SDS011;640;48.310;11.728;2023-02-15T13:10:23;31.35;;;16.65;;
1294;SDS011;640;48.310;11.728;2023-02-15T13:12:53;21.42;;;14.55;;
1294;SDS011;640;48.310;11.728;2023-02-15T13:15:25;22.52;;;13.48;;
1294;SDS011;640;48.310;11.728;2023-02-15T13:18:04;23.67;;;14.27;;
1294;SDS011;640;48.310;11.728;2023-02-15T13:20:33;24.23;;;13.70;;
1294;SDS011;640;48.310;11.728;2023-02-15T13:23:03;26.60;;;17.15;;
1294;SDS011;640;48.310;11.728;2023-02-15T13:25:36;26.60;;;17.10;;
1294;SDS011;640;48.310;11.728;2023-02-15T13:28:10;27.17;;;17.83;;
1294;SDS011;640;48.310;11.728;2023-02-15T13:30:42;25.60;;;16.50;;
1294;SDS011;640;48.310;11.728;2023-02-15T13:33:14;26.55;;;15.52;;
1294;SDS011;640;48.310;11.728;2023-02-15T13:35:46;25.08;;;15.35;;
1294;SDS011;640;48.310;11.728;2023-02-15T13:38:35;26.00;;;14.63;;
1294;SDS011;640;48.310;11.728;2023-02-15T13:41:14;25.65;;;16.27;;
1294;SDS011;640;48.310;11.728;2023-02-15T13:43:48;27.13;;;16.67;;
1294;SDS011;640;48.310;11.728;2023-02-15T13:46:26;27.27;;;16.52;;
1294;SDS011;640;48.310;11.728;2023-02-15T13:49:07;27.58;;;15.90;;
1294;SDS011;640;48.310;11.728;2023-02-15T13:51:45;26.65;;;14.95;;
1294;SDS011;640;48.310;11.728;2023-02-15T13:54:26;14.18;;;8.38;;
1294;SDS011;640;48.310;11.728;2023-02-15T13:57:05;26.27;;;15.27;;
1294;SDS011;640;48.310;11.728;2023-02-15T13:59:58;28.05;;;17.90;;
1294;SDS011;640;48.310;11.728;2023-02-15T14:02:37;28.30;;;17.73;;
1294;SDS011;640;48.310;11.728;2023-02-15T14:05:27;28.03;;;16.93;;
1294;SDS011;640;48.310;11.728;2023-02-15T14:08:01;30.73;;;18.63;;
1294;SDS011;640;48.310;11.728;2023-02-15T14:10:44;36.22;;;24.13;;
1294;SDS011;640;48.310;11.728;2023-02-15T14:13:29;35.47;;;22.52;;
1294;SDS011;640;48.310;11.728;2023-02-15T14:16:08;40.00;;;21.90;;
1294;SDS011;640;48.310;11.728;2023-02-15T14:18:41;34.85;;;19.98;;
1294;SDS011;640;48.310;11.728;2023-02-15T14:21:13;28.40;;;16.65;;
1294;SDS011;640;48.310;11.728;2023-02-15T14:23:49;30.80;;;20.15;;
1294;SDS011;640;48.310;11.728;2023-02-15T14:26:25;33.95;;;21.70;;
1294;SDS011;640;48.310;11.728;2023-02-15T14:29:03;36.08;;;20.95;;
1294;SDS011;640;48.310;11.728;2023-02-15T14:31:39;36.85;;;22.38;;
1294;SDS011;640;48.310;11.728;2023-02-15T14:34:14;36.25;;;21.63;;
1294;SDS011;640;48.310;11.728;2023-02-15T14:36:48;37.78;;;21.73;;
1294;SDS011;640;48.310;11.728;2023-02-15T14:39:21;38.63;;;21.90;;
1294;SDS011;640;48.310;11.728;2023-02-15T14:42:17;32.30;;;19.83;;
1294;SDS011;640;48.310;11.728;2023-02-15T14:44:49;35.15;;;19.88;;
1294;SDS011;640;48.310;11.728;2023-02-15T14:47:22;34.35;;;21.00;;
1294;SDS011;640;48.310;11.728;2023-02-15T14:49:54;34.85;;;20.40;;
1294;SDS011;640;48.310;11.728;2023-02-15T14:52:24;39.70;;;22.33;;
1294;SDS011;640;48.310;11.728;2023-02-15T14:54:53;39.00;;;22.60;;
1294;SDS011;640;48.310;11.728;2023-02-15T14:57:24;41.40;;;22.80;;
1294;SDS011;640;48.310;11.728;2023-02-15T14:59:55;42.10;;;24.42;;
1294;SDS011;640;48.310;11.728;2023-02-15T15:02:26;46.28;;;25.13;;
1294;SDS011;640;48.310;11.728;2023-02-15T15:04:56;43.42;;;25.35;;
1294;SDS011;640;48.310;11.728;2023-02-15T15:07:35;41.10;;;23.40;;
1294;SDS011;640;48.310;11.728;2023-02-15T15:10:06;34.63;;;17.70;;
1294;SDS011;640;48.310;11.728;2023-02-15T15:18:52;30.90;;;15.32;;
1294;SDS011;640;48.310;11.728;2023-02-15T15:36:24;36.70;;;18.38;;
1294;SDS011;640;48.310;11.728;2023-02-15T15:39:21;36.92;;;19.40;;
1294;SDS011;640;48.310;11.728;2023-02-15T15:42:24;37.08;;;18.73;;
1294;SDS011;640;48.310;11.728;2023-02-15T15:45:12;40.85;;;18.95;;
1294;SDS011;640;48.310;11.728;2023-02-15T15:48:14;41.60;;;16.63;;
1294;SDS011;640;48.310;11.728;2023-02-15T15:50:50;43.05;;;17.50;;
1294;SDS011;640;48.310;11.728;2023-02-15T15:53:22;48.63;;;21.80;;
1294;SDS011;640;48.310;11.728;2023-02-15T15:55:54;47.45;;;22.98;;
1294;SDS011;640;48.310;11.728;2023-02-15T15:58:24;50.90;;;24.55;;
1294;SDS011;640;48.310;11.728;2023-02-15T16:00:54;54.60;;;24.33;;